createdAt,value
2019-02-18T00:01:38.669Z,38.67
2019-02-18T00:04:07.092Z,37.70
2019-02-18T00:06:35.870Z,35.50
2019-02-18T00:09:05.348Z,38.60
2019-02-18T00:11:33.797Z,37.65
2019-02-18T00:14:02.825Z,38.60
2019-02-18T00:16:30.887Z,37.03
2019-02-18T00:18:59.280Z,37.17
2019-02-18T00:21:27.734Z,39.65
2019-02-18T00:23:56.332Z,39.63
2019-02-18T00:26:24.724Z,37.80
2019-02-18T00:28:52.756Z,39.15
2019-02-18T00:31:21.179Z,38.40
2019-02-18T00:33:49.531Z,38.73
2019-02-18T00:36:17.835Z,40.67
2019-02-18T00:38:45.912Z,43.30
2019-02-18T00:41:13.980Z,38.77
2019-02-18T00:43:42.356Z,40.92
2019-02-18T00:46:11.038Z,39.45
2019-02-18T00:48:39.527Z,39.47
2019-02-18T00:51:07.581Z,40.73
2019-02-18T00:53:35.607Z,42.23
2019-02-18T00:56:04.385Z,42.05
2019-02-18T00:58:32.457Z,40.17
2019-02-18T01:01:01.105Z,38.95
2019-02-18T01:03:29.193Z,39.97
2019-02-18T01:05:57.244Z,40.57
2019-02-18T01:08:25.567Z,39.77
2019-02-18T01:10:53.591Z,40.45
2019-02-18T01:13:21.987Z,38.60
2019-02-18T01:15:50.020Z,41.13
2019-02-18T01:18:18.072Z,39.83
2019-02-18T01:20:46.422Z,38.73
2019-02-18T01:23:14.781Z,41.63
2019-02-18T01:25:43.143Z,39.70
2019-02-18T01:28:12.047Z,40.90
2019-02-18T01:30:40.943Z,41.30
2019-02-18T01:33:09.609Z,43.48
2019-02-18T01:35:38.009Z,42.65
2019-02-18T01:38:06.328Z,38.70
2019-02-18T01:40:34.431Z,41.00
2019-02-18T01:43:02.822Z,41.30
2019-02-18T01:45:31.425Z,41.48
2019-02-18T01:47:59.769Z,40.33
2019-02-18T01:50:28.493Z,42.25
2019-02-18T01:52:56.863Z,39.98
2019-02-18T01:55:24.936Z,42.45
2019-02-18T01:57:53.712Z,42.62
2019-02-18T02:00:22.108Z,41.30
2019-02-18T02:02:50.495Z,40.25
2019-02-18T02:05:18.557Z,41.70
2019-02-18T02:07:55.926Z,41.80
2019-02-18T02:10:16.472Z,39.23
2019-02-18T02:12:45.237Z,39.13
2019-02-18T02:15:20.872Z,38.28
2019-02-18T02:17:49.265Z,39.23
2019-02-18T02:20:18.253Z,39.80
2019-02-18T02:22:46.631Z,40.08
2019-02-18T02:25:15.002Z,37.55
2019-02-18T02:27:43.189Z,38.48
2019-02-18T02:30:11.790Z,35.30
2019-02-18T02:32:40.474Z,37.85
2019-02-18T02:35:08.505Z,34.88
2019-02-18T02:37:36.878Z,36.15
2019-02-18T02:40:05.217Z,37.45
2019-02-18T02:42:33.255Z,35.73
2019-02-18T02:45:02.055Z,35.73
2019-02-18T02:47:30.749Z,35.85
2019-02-18T02:49:58.834Z,34.33
2019-02-18T02:52:26.913Z,36.10
2019-02-18T02:54:55.005Z,35.48
2019-02-18T02:57:23.081Z,37.85
2019-02-18T02:59:51.508Z,36.53
2019-02-18T03:02:19.568Z,38.73
2019-02-18T03:04:47.961Z,36.28
2019-02-18T03:07:15.986Z,33.90
2019-02-18T03:09:44.544Z,36.23
2019-02-18T03:12:12.577Z,37.00
2019-02-18T03:14:40.672Z,36.83
2019-02-18T03:17:09.045Z,36.90
2019-02-18T03:19:37.717Z,34.92
2019-02-18T03:22:06.107Z,33.43
2019-02-18T03:24:34.789Z,38.00
2019-02-18T03:27:02.845Z,35.13
2019-02-18T03:29:48.789Z,36.80
2019-02-18T03:32:17.394Z,36.33
2019-02-18T03:34:46.117Z,35.28
2019-02-18T03:37:14.531Z,37.13
2019-02-18T03:39:42.577Z,34.95
2019-02-18T03:42:10.662Z,35.73
2019-02-18T03:44:39.433Z,34.65
2019-02-18T03:47:08.531Z,37.65
2019-02-18T03:49:37.217Z,36.33
2019-02-18T03:52:05.566Z,35.93
2019-02-18T03:54:33.989Z,36.35
2019-02-18T03:57:02.675Z,36.23
2019-02-18T03:59:31.075Z,35.33
2019-02-18T04:01:59.504Z,36.23
2019-02-18T04:04:28.210Z,36.23
2019-02-18T04:06:56.592Z,36.83
2019-02-18T04:09:24.636Z,35.63
2019-02-18T04:11:52.964Z,33.50
2019-02-18T04:14:21.661Z,33.28
2019-02-18T04:16:49.986Z,35.98
2019-02-18T04:19:18.041Z,41.83
2019-02-18T04:21:47.104Z,38.83
2019-02-18T04:24:15.514Z,37.15
2019-02-18T04:26:44.345Z,34.10
2019-02-18T04:29:12.717Z,35.55
2019-02-18T04:31:41.135Z,35.15
2019-02-18T04:34:09.838Z,33.05
2019-02-18T04:36:38.369Z,37.50
2019-02-18T04:39:06.760Z,37.42
2019-02-18T04:41:35.087Z,35.23
2019-02-18T04:44:03.145Z,34.70
2019-02-18T04:46:31.661Z,35.43
2019-02-18T04:49:00.414Z,34.48
2019-02-18T04:51:28.485Z,34.15
2019-02-18T04:53:56.920Z,38.28
2019-02-18T04:56:24.955Z,34.00
2019-02-18T04:58:52.987Z,32.60
2019-02-18T05:01:20.984Z,39.03
2019-02-18T05:03:49.054Z,33.93
2019-02-18T05:06:17.489Z,40.47
2019-02-18T05:08:45.868Z,34.90
2019-02-18T05:11:14.249Z,35.68
2019-02-18T05:13:42.629Z,33.25
2019-02-18T05:16:10.684Z,34.38
2019-02-18T05:18:39.000Z,33.50
2019-02-18T05:21:07.732Z,36.28
2019-02-18T05:23:36.147Z,35.90
2019-02-18T05:26:04.299Z,36.13
2019-02-18T05:28:32.713Z,34.67
2019-02-18T05:31:01.119Z,33.02
2019-02-18T05:33:29.540Z,33.28
2019-02-18T05:35:57.933Z,36.28
2019-02-18T05:38:26.305Z,35.45
2019-02-18T05:40:54.661Z,35.57
2019-02-18T05:43:23.067Z,33.13
2019-02-18T05:45:51.118Z,34.30
2019-02-18T05:48:19.474Z,33.80
2019-02-18T05:50:48.131Z,33.10
2019-02-18T05:53:16.543Z,34.13
2019-02-18T05:55:44.597Z,35.60
2019-02-18T05:58:13.002Z,33.20
2019-02-18T06:00:41.653Z,33.45
2019-02-18T06:03:09.679Z,35.33
2019-02-18T06:05:37.983Z,33.38
2019-02-18T06:08:06.661Z,34.20
2019-02-18T06:10:34.688Z,35.00
2019-02-18T06:13:02.767Z,34.75
2019-02-18T06:15:32.445Z,33.92
2019-02-18T06:18:00.932Z,34.67
2019-02-18T06:20:29.689Z,33.38
2019-02-18T06:22:57.777Z,35.63
2019-02-18T06:25:26.449Z,34.85
2019-02-18T06:27:54.519Z,35.03
2019-02-18T06:30:23.001Z,34.10
2019-02-18T06:32:51.066Z,34.18
2019-02-18T06:35:19.509Z,34.35
2019-02-18T06:37:47.604Z,37.58
2019-02-18T06:40:15.897Z,33.85
2019-02-18T06:42:44.296Z,33.60
2019-02-18T06:45:34.593Z,31.87
2019-02-18T06:48:06.961Z,34.00
2019-02-18T06:50:35.331Z,29.72
2019-02-18T06:53:03.387Z,33.73
2019-02-18T06:55:31.905Z,32.98
2019-02-18T06:58:17.336Z,30.10
2019-02-18T07:00:51.853Z,30.75
2019-02-18T07:03:30.704Z,30.57
2019-02-18T07:06:13.140Z,34.67
2019-02-18T07:09:03.225Z,36.10
2019-02-18T07:11:46.368Z,34.20
2019-02-18T07:14:14.415Z,31.57
2019-02-18T07:16:42.504Z,31.50
2019-02-18T07:19:10.853Z,31.90
2019-02-18T07:21:39.336Z,31.17
2019-02-18T07:24:07.731Z,31.90
2019-02-18T07:26:35.852Z,29.52
2019-02-18T07:29:04.154Z,32.60
2019-02-18T07:31:33.059Z,31.17
2019-02-18T07:34:01.762Z,31.43
2019-02-18T07:36:29.840Z,31.82
2019-02-18T07:38:58.644Z,28.90
2019-02-18T07:41:26.736Z,28.73
2019-02-18T07:43:55.464Z,26.90
2019-02-18T07:46:24.001Z,29.48
2019-02-18T07:48:52.323Z,26.90
2019-02-18T07:51:20.619Z,27.43
2019-02-18T07:53:48.709Z,28.12
2019-02-18T07:56:17.036Z,24.52
2019-02-18T07:58:45.437Z,25.62
2019-02-18T08:01:13.505Z,25.77
2019-02-18T08:03:41.604Z,26.12
2019-02-18T08:06:09.959Z,24.45
2019-02-18T08:08:38.003Z,25.30
2019-02-18T08:11:06.617Z,26.10
2019-02-18T08:13:35.045Z,24.47
2019-02-18T08:16:03.797Z,24.72
2019-02-18T08:18:32.407Z,25.75
2019-02-18T08:21:00.475Z,25.67
2019-02-18T08:23:28.565Z,23.10
2019-02-18T08:25:57.057Z,26.65
2019-02-18T08:28:25.369Z,26.48
2019-02-18T08:30:53.748Z,25.52
2019-02-18T08:33:22.134Z,23.85
2019-02-18T08:35:50.184Z,24.57
2019-02-18T08:38:18.895Z,24.57
2019-02-18T08:40:46.948Z,28.25
2019-02-18T08:43:15.019Z,24.50
2019-02-18T08:45:43.424Z,22.75
2019-02-18T08:48:11.528Z,26.33
2019-02-18T08:50:39.583Z,22.05
2019-02-18T08:53:08.349Z,24.77
2019-02-18T08:55:36.753Z,23.80
2019-02-18T08:58:04.929Z,24.87
2019-02-18T09:00:33.684Z,25.52
2019-02-18T09:03:02.002Z,31.33
2019-02-18T09:05:30.520Z,24.95
2019-02-18T09:07:59.285Z,25.75
2019-02-18T09:10:33.499Z,22.10
2019-02-18T09:12:57.040Z,22.05
2019-02-18T09:15:25.607Z,22.70
2019-02-18T09:17:54.184Z,21.53
2019-02-18T09:20:22.216Z,19.40
2019-02-18T09:22:56.797Z,38.23
2019-02-18T09:25:29.069Z,24.67
2019-02-18T09:27:57.201Z,22.27
2019-02-18T09:30:28.208Z,19.98
2019-02-18T09:32:56.251Z,20.27
2019-02-18T09:35:24.644Z,20.60
2019-02-18T09:37:53.015Z,21.68
2019-02-18T09:40:21.215Z,22.10
2019-02-18T09:42:49.420Z,22.40
2019-02-18T09:45:18.319Z,19.98
2019-02-18T09:47:46.369Z,20.15
2019-02-18T09:50:14.606Z,19.77
2019-02-18T09:52:42.976Z,21.17
2019-02-18T09:55:11.133Z,20.40
2019-02-18T09:57:39.623Z,21.17
2019-02-18T10:00:08.311Z,21.75
2019-02-18T10:02:36.396Z,21.00
2019-02-18T10:05:04.556Z,22.40
2019-02-18T10:07:32.621Z,20.90
2019-02-18T10:10:01.017Z,22.10
2019-02-18T10:12:29.065Z,22.03
2019-02-18T10:14:57.489Z,21.82
2019-02-18T10:17:25.825Z,21.73
2019-02-18T10:19:53.909Z,20.43
2019-02-18T10:22:22.061Z,19.95
2019-02-18T10:24:51.218Z,21.50
2019-02-18T10:27:19.661Z,19.70
2019-02-18T10:29:48.045Z,21.07
2019-02-18T10:32:16.452Z,37.88
2019-02-18T10:34:44.821Z,23.95
2019-02-18T10:37:12.881Z,24.05
2019-02-18T10:39:41.563Z,24.60
2019-02-18T10:42:09.758Z,24.10
2019-02-18T10:44:38.404Z,20.43
2019-02-18T10:47:06.450Z,22.22
2019-02-18T10:49:35.615Z,25.35
2019-02-18T10:52:04.389Z,23.50
2019-02-18T10:54:32.443Z,21.25
2019-02-18T10:57:00.492Z,23.12
2019-02-18T10:59:28.504Z,26.10
2019-02-18T11:01:56.916Z,26.15
2019-02-18T11:04:25.677Z,24.30
2019-02-18T11:06:53.708Z,23.67
2019-02-18T11:09:21.732Z,25.10
2019-02-18T11:11:50.107Z,23.97
2019-02-18T11:14:18.564Z,22.70
2019-02-18T11:16:47.868Z,23.05
2019-02-18T11:19:17.615Z,23.25
2019-02-18T11:21:46.097Z,22.75
2019-02-18T11:24:15.048Z,22.40
2019-02-18T11:26:44.105Z,30.12
2019-02-18T11:29:12.587Z,24.43
2019-02-18T11:31:41.260Z,22.25
2019-02-18T11:34:09.812Z,23.30
2019-02-18T11:36:38.211Z,24.40
2019-02-18T11:39:10.796Z,24.05
2019-02-18T11:41:38.886Z,23.60
2019-02-18T11:44:07.046Z,22.32
2019-02-18T11:46:35.886Z,21.30
2019-02-18T11:49:04.048Z,27.80
2019-02-18T11:51:32.160Z,25.12
2019-02-18T11:54:00.252Z,23.73
2019-02-18T11:56:28.789Z,23.45
2019-02-18T11:58:57.514Z,21.90
2019-02-18T12:01:29.446Z,21.95
2019-02-18T12:03:58.288Z,22.90
2019-02-18T12:06:26.816Z,21.42
2019-02-18T12:08:55.402Z,24.40
2019-02-18T12:11:23.827Z,23.03
2019-02-18T12:13:54.027Z,22.73
2019-02-18T12:16:22.248Z,23.40
2019-02-18T12:18:50.409Z,26.30
2019-02-18T12:21:18.988Z,21.27
2019-02-18T12:23:47.080Z,22.73
2019-02-18T12:26:15.222Z,24.45
2019-02-18T12:28:45.218Z,21.83
2019-02-18T12:31:13.515Z,24.02
2019-02-18T12:33:42.097Z,24.63
2019-02-18T12:36:10.315Z,23.45
2019-02-18T12:38:38.436Z,22.00
2019-02-18T12:41:06.573Z,24.23
2019-02-18T12:43:34.884Z,23.62
2019-02-18T12:46:03.275Z,21.20
2019-02-18T12:48:31.347Z,21.50
2019-02-18T12:51:00.208Z,20.17
2019-02-18T12:53:28.746Z,21.15
2019-02-18T12:55:56.869Z,24.07
2019-02-18T12:58:24.993Z,22.10
2019-02-18T13:00:53.155Z,21.23
2019-02-18T13:03:21.547Z,22.50
2019-02-18T13:05:49.779Z,22.90
2019-02-18T13:08:17.784Z,22.87
2019-02-18T13:10:46.660Z,21.93
2019-02-18T13:13:15.489Z,23.10
2019-02-18T13:15:44.552Z,18.20
2019-02-18T13:18:12.622Z,18.87
2019-02-18T13:20:41.066Z,19.65
2019-02-18T13:23:10.115Z,19.95
2019-02-18T13:25:38.148Z,19.00
2019-02-18T13:28:08.507Z,19.10
2019-02-18T13:30:36.255Z,19.00
2019-02-18T13:33:05.111Z,17.57
2019-02-18T13:35:33.554Z,19.57
2019-02-18T13:38:01.973Z,20.25
2019-02-18T13:40:30.052Z,18.67
2019-02-18T13:42:58.474Z,19.80
2019-02-18T13:45:26.905Z,17.17
2019-02-18T13:47:55.288Z,19.30
2019-02-18T13:50:23.783Z,17.80
2019-02-18T13:52:52.117Z,23.57
2019-02-18T13:55:20.927Z,23.15
2019-02-18T13:57:49.620Z,18.50
2019-02-18T14:00:19.489Z,21.75
2019-02-18T14:02:47.977Z,22.20
2019-02-18T14:05:16.599Z,19.75
2019-02-18T14:07:44.839Z,20.35
2019-02-18T14:10:13.432Z,17.98
2019-02-18T14:12:43.180Z,20.10
2019-02-18T14:15:12.165Z,18.50
2019-02-18T14:17:40.760Z,22.85
2019-02-18T14:20:10.233Z,18.07
2019-02-18T14:22:38.347Z,19.12
2019-02-18T14:25:06.805Z,23.60
2019-02-18T14:27:35.401Z,21.85
2019-02-18T14:30:03.817Z,22.45
2019-02-18T14:32:32.251Z,17.37
2019-02-18T14:35:00.417Z,19.07
2019-02-18T14:37:28.903Z,23.40
2019-02-18T14:39:57.810Z,20.43
2019-02-18T14:42:27.235Z,21.07
2019-02-18T14:44:55.684Z,20.77
2019-02-18T14:47:24.692Z,19.32
2019-02-18T14:49:53.573Z,19.32
2019-02-18T14:52:22.570Z,19.30
2019-02-18T14:54:51.012Z,21.70
2019-02-18T14:57:19.895Z,19.23
2019-02-18T14:59:48.707Z,20.17
2019-02-18T15:02:16.812Z,21.97
2019-02-18T15:04:45.831Z,19.37
2019-02-18T15:07:14.288Z,21.10
2019-02-18T15:09:44.130Z,20.68
2019-02-18T15:12:12.504Z,19.17
2019-02-18T15:14:40.541Z,21.37
2019-02-18T15:17:09.324Z,19.70
2019-02-18T15:19:37.588Z,19.45
2019-02-18T15:22:06.438Z,19.83
2019-02-18T15:24:35.010Z,17.67
2019-02-18T15:27:03.572Z,19.43
2019-02-18T15:29:32.640Z,19.92
2019-02-18T15:32:01.403Z,18.02
2019-02-18T15:34:29.868Z,19.10
2019-02-18T15:36:59.019Z,19.48
2019-02-18T15:39:27.640Z,17.85
2019-02-18T15:41:55.930Z,18.02
2019-02-18T15:44:24.720Z,19.90
2019-02-18T15:46:53.250Z,18.82
2019-02-18T15:49:21.636Z,20.45
2019-02-18T15:51:49.778Z,17.60
2019-02-18T15:54:17.881Z,19.42
2019-02-18T15:56:46.238Z,17.85
2019-02-18T15:59:14.325Z,24.80
2019-02-18T16:01:43.231Z,20.43
2019-02-18T16:04:11.566Z,21.50
2019-02-18T16:06:39.674Z,17.90
2019-02-18T16:09:08.058Z,19.40
2019-02-18T16:11:36.151Z,18.13
2019-02-18T16:14:04.215Z,20.75
2019-02-18T16:16:32.708Z,19.00
2019-02-18T16:19:00.736Z,21.37
2019-02-18T16:21:28.780Z,21.30
2019-02-18T16:23:57.252Z,19.05
2019-02-18T16:26:25.899Z,21.42
2019-02-18T16:28:54.020Z,27.85
2019-02-18T16:31:23.700Z,27.95
2019-02-18T16:33:52.160Z,24.50
2019-02-18T16:36:20.796Z,23.27
2019-02-18T16:38:48.958Z,23.07
2019-02-18T16:41:17.481Z,19.73
2019-02-18T16:43:45.529Z,21.55
2019-02-18T16:46:13.855Z,20.77
2019-02-18T16:48:42.953Z,22.67
2019-02-18T16:51:11.029Z,21.40
2019-02-18T16:53:39.076Z,20.37
2019-02-18T16:56:07.409Z,23.22
2019-02-18T16:58:35.463Z,22.27
2019-02-18T17:01:04.368Z,24.40
2019-02-18T17:03:32.409Z,22.70
2019-02-18T17:06:01.113Z,21.48
2019-02-18T17:08:29.571Z,22.67
2019-02-18T17:10:57.669Z,26.00
2019-02-18T17:13:25.767Z,24.47
2019-02-18T17:15:55.424Z,26.00
2019-02-18T17:18:23.864Z,32.05
2019-02-18T17:20:52.609Z,26.93
2019-02-18T17:23:21.276Z,25.65
2019-02-18T17:25:49.992Z,24.60
2019-02-18T17:28:18.135Z,25.35
2019-02-18T17:30:46.432Z,21.85
2019-02-18T17:33:14.899Z,25.10
2019-02-18T17:35:42.950Z,34.18
2019-02-18T17:38:11.382Z,28.65
2019-02-18T17:40:39.727Z,23.90
2019-02-18T17:43:16.076Z,21.85
2019-02-18T17:45:37.789Z,22.40
2019-02-18T17:48:05.807Z,25.88
2019-02-18T17:50:34.156Z,22.00
2019-02-18T17:53:02.997Z,31.05
2019-02-18T17:55:31.401Z,29.25
2019-02-18T17:58:00.228Z,22.65
2019-02-18T18:00:30.373Z,25.45
2019-02-18T18:02:58.461Z,21.12
2019-02-18T18:05:26.911Z,21.07
2019-02-18T18:07:54.957Z,26.73
2019-02-18T18:10:23.090Z,23.53
2019-02-18T18:12:51.674Z,25.23
2019-02-18T18:15:19.848Z,25.57
2019-02-18T18:17:48.329Z,22.67
2019-02-18T18:20:16.593Z,29.43
2019-02-18T18:22:45.768Z,23.10
2019-02-18T18:25:14.322Z,23.27
2019-02-18T18:27:42.444Z,23.00
2019-02-18T18:30:11.616Z,21.20
2019-02-18T18:32:39.994Z,21.60
2019-02-18T18:35:08.486Z,40.05
2019-02-18T18:37:36.569Z,36.48
2019-02-18T18:40:05.114Z,23.57
2019-02-18T18:42:33.621Z,22.33
2019-02-18T18:45:01.676Z,21.80
2019-02-18T18:47:30.099Z,22.80
2019-02-18T18:49:58.443Z,21.07
2019-02-18T18:52:26.493Z,24.85
2019-02-18T18:57:29.052Z,22.02
2019-02-18T18:59:57.129Z,22.27
2019-02-18T19:02:25.710Z,22.85
2019-02-18T19:04:53.897Z,25.62
2019-02-18T19:07:22.253Z,24.20
2019-02-18T19:09:50.705Z,23.38
2019-02-18T19:12:19.029Z,24.20
2019-02-18T19:14:47.830Z,24.63
2019-02-18T19:17:16.501Z,23.80
2019-02-18T19:19:44.679Z,22.77
2019-02-18T19:22:12.844Z,26.85
2019-02-18T19:24:41.009Z,23.60
2019-02-18T19:27:09.612Z,23.95
2019-02-18T19:29:38.045Z,22.05
2019-02-18T19:32:06.424Z,23.50
2019-02-18T19:34:35.853Z,25.25
2019-02-18T19:37:06.211Z,24.12
2019-02-18T19:39:35.144Z,24.05
2019-02-18T19:42:05.048Z,22.58
2019-02-18T19:44:33.344Z,23.52
2019-02-18T19:47:01.541Z,22.90
2019-02-18T19:49:29.725Z,26.27
2019-02-18T19:51:58.002Z,23.32
2019-02-18T19:54:26.550Z,24.05
2019-02-18T19:56:54.924Z,24.52
2019-02-18T19:59:23.452Z,23.27
2019-02-18T20:01:51.624Z,24.98
2019-02-18T20:04:20.400Z,22.58
2019-02-18T20:06:49.006Z,24.47
2019-02-18T20:09:17.163Z,22.35
2019-02-18T20:11:45.618Z,21.23
2019-02-18T20:14:16.620Z,23.35
2019-02-18T20:16:45.239Z,23.50
2019-02-18T20:19:13.460Z,24.40
2019-02-18T20:21:43.290Z,23.38
2019-02-18T20:24:11.952Z,22.75
2019-02-18T20:26:41.918Z,25.10
2019-02-18T20:29:10.047Z,26.95
2019-02-18T20:31:38.491Z,25.65
2019-02-18T20:34:06.851Z,22.65
2019-02-18T20:36:34.902Z,22.98
2019-02-18T20:39:04.450Z,24.82
2019-02-18T20:41:33.023Z,24.30
2019-02-18T20:44:07.362Z,23.07
2019-02-18T20:46:31.651Z,23.25
2019-02-18T20:49:00.214Z,22.07
2019-02-18T20:51:28.753Z,22.50
2019-02-18T20:53:58.163Z,23.57
2019-02-18T20:56:26.553Z,22.62
2019-02-18T20:58:54.745Z,22.42
2019-02-18T21:01:22.780Z,23.77
2019-02-18T21:03:51.309Z,22.17
2019-02-18T21:06:19.431Z,27.37
2019-02-18T21:08:47.919Z,22.98
2019-02-18T21:11:18.186Z,22.65
2019-02-18T21:13:46.301Z,24.10
2019-02-18T21:16:14.718Z,24.03
2019-02-18T21:18:43.059Z,21.25
2019-02-18T21:21:11.776Z,22.58
2019-02-18T21:23:39.922Z,22.48
2019-02-18T21:26:07.985Z,22.27
2019-02-18T21:28:36.141Z,22.80
2019-02-18T21:31:04.609Z,23.73
2019-02-18T21:33:34.420Z,21.97
2019-02-18T21:36:02.633Z,26.73
2019-02-18T21:38:30.764Z,25.35
2019-02-18T21:40:58.901Z,25.10
2019-02-18T21:43:27.739Z,23.25
2019-02-18T21:45:56.108Z,24.32
2019-02-18T21:48:24.241Z,22.90
2019-02-18T21:50:53.033Z,24.25
2019-02-18T21:53:21.469Z,23.47
2019-02-18T21:55:50.563Z,23.55
2019-02-18T21:58:18.925Z,23.70
2019-02-18T22:00:47.348Z,21.45
2019-02-18T22:03:17.524Z,25.45
2019-02-18T22:05:45.728Z,22.57
2019-02-18T22:08:13.927Z,25.17
2019-02-18T22:10:42.360Z,25.80
2019-02-18T22:13:10.880Z,23.55
2019-02-18T22:15:39.953Z,24.77
2019-02-18T22:18:08.036Z,21.90
2019-02-18T22:20:36.533Z,22.48
2019-02-18T22:23:04.598Z,27.22
2019-02-18T22:25:32.727Z,23.67
2019-02-18T22:28:00.870Z,24.00
2019-02-18T22:30:29.045Z,22.70
2019-02-18T22:32:57.564Z,25.40
2019-02-18T22:35:25.705Z,21.17
2019-02-18T22:37:54.235Z,25.48
2019-02-18T22:40:22.255Z,24.92
2019-02-18T22:42:50.315Z,22.95
2019-02-18T22:45:19.741Z,21.55
2019-02-18T22:47:48.094Z,25.08
2019-02-18T22:50:17.087Z,23.77
2019-02-18T22:52:45.289Z,24.70
2019-02-18T22:55:13.802Z,23.15
2019-02-18T22:57:42.532Z,22.65
2019-02-18T23:00:19.264Z,24.87
2019-02-18T23:02:48.257Z,23.25
2019-02-18T23:05:17.088Z,22.52
2019-02-18T23:07:45.333Z,23.73
2019-02-18T23:10:13.776Z,22.15
2019-02-18T23:12:42.216Z,21.70
2019-02-18T23:15:11.120Z,20.60
2019-02-18T23:17:39.392Z,23.42
2019-02-18T23:20:08.677Z,26.50
2019-02-18T23:22:37.858Z,23.92
2019-02-18T23:25:06.069Z,21.82
2019-02-18T23:27:34.478Z,23.22
2019-02-18T23:30:03.295Z,22.15
2019-02-18T23:32:31.412Z,23.00
2019-02-18T23:34:59.609Z,23.80
2019-02-18T23:37:28.435Z,22.85
2019-02-18T23:40:17.001Z,23.10
2019-02-18T23:42:45.631Z,23.55
2019-02-18T23:45:14.509Z,25.27
2019-02-18T23:47:43.107Z,23.30
2019-02-18T23:50:11.670Z,24.10
2019-02-18T23:52:39.688Z,23.03
2019-02-18T23:55:08.208Z,23.93
2019-02-18T23:57:37.166Z,22.55
